sensor_id;sensor_type;location;lat;lon;timestamp;temperature;humidity
6377;DHT22;3221;48.858;10.128;2022-09-09T00:04:34;15.30;99.90
6377;DHT22;3221;48.858;10.128;2022-09-09T00:07:36;15.30;99.90
6377;DHT22;3221;48.858;10.128;2022-09-09T00:10:36;15.20;99.90
6377;DHT22;3221;48.858;10.128;2022-09-09T00:13:15;15.20;99.90
6377;DHT22;3221;48.858;10.128;2022-09-09T00:16:15;15.20;99.90
6377;DHT22;3221;48.858;10.128;2022-09-09T00:21:17;15.10;99.90
6377;DHT22;3221;48.858;10.128;2022-09-09T00:23:49;15.10;99.90
6377;DHT22;3221;48.858;10.128;2022-09-09T00:26:42;15.10;99.90
6377;DHT22;3221;48.858;10.128;2022-09-09T00:31:39;15.10;99.90
6377;DHT22;3221;48.858;10.128;2022-09-09T00:34:21;15.00;99.90
6377;DHT22;3221;48.858;10.128;2022-09-09T00:36:53;15.00;99.90
6377;DHT22;3221;48.858;10.128;2022-09-09T00:39:34;14.90;99.90
6377;DHT22;3221;48.858;10.128;2022-09-09T00:42:18;14.90;99.90
6377;DHT22;3221;48.858;10.128;2022-09-09T00:50:35;15.00;99.90
6377;DHT22;3221;48.858;10.128;2022-09-09T00:56:14;15.00;99.90
6377;DHT22;3221;48.858;10.128;2022-09-09T00:58:52;15.00;99.90
6377;DHT22;3221;48.858;10.128;2022-09-09T01:01:22;15.00;99.90
6377;DHT22;3221;48.858;10.128;2022-09-09T01:03:53;15.00;99.90
6377;DHT22;3221;48.858;10.128;2022-09-09T01:06:31;14.90;99.90
6377;DHT22;3221;48.858;10.128;2022-09-09T01:09:04;14.90;99.90
6377;DHT22;3221;48.858;10.128;2022-09-09T01:17:01;15.00;99.90
6377;DHT22;3221;48.858;10.128;2022-09-09T01:22:34;15.00;99.90
6377;DHT22;3221;48.858;10.128;2022-09-09T01:27:59;15.00;99.90
6377;DHT22;3221;48.858;10.128;2022-09-09T01:30:28;15.10;99.90
6377;DHT22;3221;48.858;10.128;2022-09-09T01:32:58;14.90;99.90
6377;DHT22;3221;48.858;10.128;2022-09-09T01:38:03;14.90;99.90
6377;DHT22;3221;48.858;10.128;2022-09-09T01:40:31;14.90;99.90
6377;DHT22;3221;48.858;10.128;2022-09-09T01:42:59;14.90;99.90
6377;DHT22;3221;48.858;10.128;2022-09-09T01:45:26;15.00;99.90
6377;DHT22;3221;48.858;10.128;2022-09-09T01:47:53;14.90;99.90
6377;DHT22;3221;48.858;10.128;2022-09-09T01:50:55;15.00;99.90
6377;DHT22;3221;48.858;10.128;2022-09-09T01:53:23;15.00;99.90
6377;DHT22;3221;48.858;10.128;2022-09-09T02:04:05;14.90;99.90
6377;DHT22;3221;48.858;10.128;2022-09-09T02:06:37;14.90;99.90
6377;DHT22;3221;48.858;10.128;2022-09-09T02:09:19;14.90;99.90
6377;DHT22;3221;48.858;10.128;2022-09-09T02:12:02;14.90;99.90
6377;DHT22;3221;48.858;10.128;2022-09-09T02:14:55;14.90;99.90
6377;DHT22;3221;48.858;10.128;2022-09-09T02:17:30;15.00;99.90
6377;DHT22;3221;48.858;10.128;2022-09-09T02:20:10;14.80;99.90
6377;DHT22;3221;48.858;10.128;2022-09-09T02:22:47;14.90;99.90
6377;DHT22;3221;48.858;10.128;2022-09-09T02:25:20;14.90;99.90
6377;DHT22;3221;48.858;10.128;2022-09-09T02:27:50;14.80;99.90
6377;DHT22;3221;48.858;10.128;2022-09-09T02:30:21;14.90;99.90
6377;DHT22;3221;48.858;10.128;2022-09-09T02:32:54;14.90;99.90
6377;DHT22;3221;48.858;10.128;2022-09-09T02:35:34;14.80;99.90
6377;DHT22;3221;48.858;10.128;2022-09-09T02:38:08;14.80;99.90
6377;DHT22;3221;48.858;10.128;2022-09-09T02:40:39;14.70;99.90
6377;DHT22;3221;48.858;10.128;2022-09-09T02:43:06;14.70;99.90
6377;DHT22;3221;48.858;10.128;2022-09-09T02:45:53;14.70;99.90
6377;DHT22;3221;48.858;10.128;2022-09-09T02:51:57;14.60;99.90
6377;DHT22;3221;48.858;10.128;2022-09-09T02:54:12;14.60;99.90
6377;DHT22;3221;48.858;10.128;2022-09-09T02:56:49;14.60;99.90
6377;DHT22;3221;48.858;10.128;2022-09-09T02:59:21;14.60;99.90
6377;DHT22;3221;48.858;10.128;2022-09-09T03:01:48;14.60;99.90
6377;DHT22;3221;48.858;10.128;2022-09-09T03:04:15;14.60;99.90
6377;DHT22;3221;48.858;10.128;2022-09-09T03:06:43;14.60;99.90
6377;DHT22;3221;48.858;10.128;2022-09-09T03:09:17;14.60;99.90
6377;DHT22;3221;48.858;10.128;2022-09-09T03:11:44;14.60;99.90
6377;DHT22;3221;48.858;10.128;2022-09-09T03:14:13;14.60;99.90
6377;DHT22;3221;48.858;10.128;2022-09-09T03:16:40;14.60;99.90
6377;DHT22;3221;48.858;10.128;2022-09-09T03:19:09;14.60;99.90
6377;DHT22;3221;48.858;10.128;2022-09-09T03:21:36;14.60;99.90
6377;DHT22;3221;48.858;10.128;2022-09-09T03:24:03;14.60;99.90
6377;DHT22;3221;48.858;10.128;2022-09-09T03:26:30;14.50;99.90
6377;DHT22;3221;48.858;10.128;2022-09-09T03:28:59;14.60;99.90
6377;DHT22;3221;48.858;10.128;2022-09-09T03:31:28;14.60;99.90
6377;DHT22;3221;48.858;10.128;2022-09-09T03:33:58;14.60;99.90
6377;DHT22;3221;48.858;10.128;2022-09-09T03:36:28;14.60;99.90
6377;DHT22;3221;48.858;10.128;2022-09-09T03:38:56;14.50;99.90
6377;DHT22;3221;48.858;10.128;2022-09-09T03:41:25;14.50;99.90
6377;DHT22;3221;48.858;10.128;2022-09-09T03:43:53;14.50;99.90
6377;DHT22;3221;48.858;10.128;2022-09-09T03:46:24;14.50;99.90
6377;DHT22;3221;48.858;10.128;2022-09-09T03:48:53;14.50;99.90
6377;DHT22;3221;48.858;10.128;2022-09-09T03:51:20;14.40;99.90
6377;DHT22;3221;48.858;10.128;2022-09-09T03:53:49;14.40;99.90
6377;DHT22;3221;48.858;10.128;2022-09-09T03:56:16;14.60;99.90
6377;DHT22;3221;48.858;10.128;2022-09-09T03:58:43;14.40;99.90
6377;DHT22;3221;48.858;10.128;2022-09-09T04:01:13;14.40;99.90
6377;DHT22;3221;48.858;10.128;2022-09-09T04:03:42;14.30;99.90
6377;DHT22;3221;48.858;10.128;2022-09-09T04:06:10;14.30;99.90
6377;DHT22;3221;48.858;10.128;2022-09-09T04:08:42;14.40;99.90
6377;DHT22;3221;48.858;10.128;2022-09-09T04:11:09;14.30;99.90
6377;DHT22;3221;48.858;10.128;2022-09-09T04:13:38;14.40;99.90
6377;DHT22;3221;48.858;10.128;2022-09-09T04:16:11;14.50;99.90
6377;DHT22;3221;48.858;10.128;2022-09-09T04:18:41;14.50;99.90
6377;DHT22;3221;48.858;10.128;2022-09-09T04:21:10;14.40;99.90
6377;DHT22;3221;48.858;10.128;2022-09-09T04:23:37;14.40;99.90
6377;DHT22;3221;48.858;10.128;2022-09-09T04:26:05;14.40;99.90
6377;DHT22;3221;48.858;10.128;2022-09-09T04:28:35;14.40;99.90
6377;DHT22;3221;48.858;10.128;2022-09-09T04:31:18;14.40;99.90
6377;DHT22;3221;48.858;10.128;2022-09-09T04:33:47;14.40;99.90
6377;DHT22;3221;48.858;10.128;2022-09-09T04:36:14;14.40;99.90
6377;DHT22;3221;48.858;10.128;2022-09-09T04:38:41;14.40;99.90
6377;DHT22;3221;48.858;10.128;2022-09-09T04:41:08;14.40;99.90
6377;DHT22;3221;48.858;10.128;2022-09-09T04:43:40;14.50;99.90
6377;DHT22;3221;48.858;10.128;2022-09-09T04:46:08;14.40;99.90
6377;DHT22;3221;48.858;10.128;2022-09-09T04:48:36;14.40;99.90
6377;DHT22;3221;48.858;10.128;2022-09-09T04:51:07;14.30;99.90
6377;DHT22;3221;48.858;10.128;2022-09-09T04:53:36;14.40;99.90
6377;DHT22;3221;48.858;10.128;2022-09-09T04:56:16;14.30;99.90
6377;DHT22;3221;48.858;10.128;2022-09-09T04:58:50;14.40;99.90
6377;DHT22;3221;48.858;10.128;2022-09-09T05:01:21;14.40;99.90
6377;DHT22;3221;48.858;10.128;2022-09-09T05:03:50;14.40;99.90
6377;DHT22;3221;48.858;10.128;2022-09-09T05:06:21;14.40;99.90
6377;DHT22;3221;48.858;10.128;2022-09-09T05:08:52;14.50;99.90
6377;DHT22;3221;48.858;10.128;2022-09-09T05:11:26;14.40;99.90
6377;DHT22;3221;48.858;10.128;2022-09-09T05:13:59;14.40;99.90
6377;DHT22;3221;48.858;10.128;2022-09-09T05:16:28;14.50;99.90
6377;DHT22;3221;48.858;10.128;2022-09-09T05:18:56;14.40;99.90
6377;DHT22;3221;48.858;10.128;2022-09-09T05:21:25;14.50;99.90
6377;DHT22;3221;48.858;10.128;2022-09-09T05:23:53;14.50;99.90
6377;DHT22;3221;48.858;10.128;2022-09-09T05:26:22;14.50;99.90
6377;DHT22;3221;48.858;10.128;2022-09-09T05:28:51;14.50;99.90
6377;DHT22;3221;48.858;10.128;2022-09-09T05:31:19;14.50;99.90
6377;DHT22;3221;48.858;10.128;2022-09-09T05:33:49;14.50;99.90
6377;DHT22;3221;48.858;10.128;2022-09-09T05:36:18;14.50;99.90
6377;DHT22;3221;48.858;10.128;2022-09-09T05:38:49;14.50;99.90
6377;DHT22;3221;48.858;10.128;2022-09-09T05:41:17;14.50;99.90
6377;DHT22;3221;48.858;10.128;2022-09-09T05:43:46;14.50;99.90
6377;DHT22;3221;48.858;10.128;2022-09-09T05:46:19;14.50;99.90
6377;DHT22;3221;48.858;10.128;2022-09-09T05:48:50;14.50;99.90
6377;DHT22;3221;48.858;10.128;2022-09-09T05:51:21;14.50;99.90
6377;DHT22;3221;48.858;10.128;2022-09-09T05:53:50;14.50;99.90
6377;DHT22;3221;48.858;10.128;2022-09-09T05:56:23;14.50;99.90
6377;DHT22;3221;48.858;10.128;2022-09-09T05:58:53;14.50;99.90
6377;DHT22;3221;48.858;10.128;2022-09-09T06:01:24;14.50;99.90
6377;DHT22;3221;48.858;10.128;2022-09-09T06:03:51;14.50;99.90
6377;DHT22;3221;48.858;10.128;2022-09-09T06:06:32;14.50;99.90
6377;DHT22;3221;48.858;10.128;2022-09-09T06:09:07;14.60;99.90
6377;DHT22;3221;48.858;10.128;2022-09-09T06:11:41;14.60;99.90
6377;DHT22;3221;48.858;10.128;2022-09-09T06:14:09;14.60;99.90
6377;DHT22;3221;48.858;10.128;2022-09-09T06:16:37;14.50;99.90
6377;DHT22;3221;48.858;10.128;2022-09-09T06:19:12;14.60;99.90
6377;DHT22;3221;48.858;10.128;2022-09-09T06:21:41;14.60;99.90
6377;DHT22;3221;48.858;10.128;2022-09-09T06:24:10;14.70;99.90
6377;DHT22;3221;48.858;10.128;2022-09-09T06:26:40;14.60;99.90
6377;DHT22;3221;48.858;10.128;2022-09-09T06:29:10;14.70;99.90
6377;DHT22;3221;48.858;10.128;2022-09-09T06:31:37;14.70;99.90
6377;DHT22;3221;48.858;10.128;2022-09-09T06:34:21;14.90;99.90
6377;DHT22;3221;48.858;10.128;2022-09-09T06:36:52;14.80;99.90
6377;DHT22;3221;48.858;10.128;2022-09-09T06:39:19;14.80;99.90
6377;DHT22;3221;48.858;10.128;2022-09-09T06:41:46;14.80;99.90
6377;DHT22;3221;48.858;10.128;2022-09-09T06:44:33;14.80;99.90
6377;DHT22;3221;48.858;10.128;2022-09-09T06:47:03;14.90;99.90
6377;DHT22;3221;48.858;10.128;2022-09-09T06:49:31;15.10;99.90
6377;DHT22;3221;48.858;10.128;2022-09-09T06:52:00;15.10;99.90
6377;DHT22;3221;48.858;10.128;2022-09-09T06:54:28;15.20;99.90
6377;DHT22;3221;48.858;10.128;2022-09-09T06:56:55;15.30;99.90
6377;DHT22;3221;48.858;10.128;2022-09-09T06:59:24;15.40;99.90
6377;DHT22;3221;48.858;10.128;2022-09-09T07:01:53;15.60;99.90
6377;DHT22;3221;48.858;10.128;2022-09-09T07:04:22;15.80;99.90
6377;DHT22;3221;48.858;10.128;2022-09-09T07:06:49;15.70;99.90
6377;DHT22;3221;48.858;10.128;2022-09-09T07:09:23;15.60;99.90
6377;DHT22;3221;48.858;10.128;2022-09-09T07:11:52;15.60;99.90
6377;DHT22;3221;48.858;10.128;2022-09-09T07:14:21;15.70;99.90
6377;DHT22;3221;48.858;10.128;2022-09-09T07:16:54;15.60;99.90
6377;DHT22;3221;48.858;10.128;2022-09-09T07:19:25;15.60;99.90
6377;DHT22;3221;48.858;10.128;2022-09-09T07:21:54;15.60;99.90
6377;DHT22;3221;48.858;10.128;2022-09-09T07:24:22;15.50;99.90
6377;DHT22;3221;48.858;10.128;2022-09-09T07:26:50;15.60;99.90
6377;DHT22;3221;48.858;10.128;2022-09-09T07:29:19;15.70;99.90
6377;DHT22;3221;48.858;10.128;2022-09-09T07:31:47;15.80;99.90
6377;DHT22;3221;48.858;10.128;2022-09-09T07:34:20;15.80;99.90
6377;DHT22;3221;48.858;10.128;2022-09-09T07:36:47;15.90;99.90
6377;DHT22;3221;48.858;10.128;2022-09-09T07:39:17;16.10;99.90
6377;DHT22;3221;48.858;10.128;2022-09-09T07:41:49;16.10;99.90
6377;DHT22;3221;48.858;10.128;2022-09-09T07:44:21;16.20;99.90
6377;DHT22;3221;48.858;10.128;2022-09-09T07:46:52;16.30;99.90
6377;DHT22;3221;48.858;10.128;2022-09-09T07:49:25;16.30;99.90
6377;DHT22;3221;48.858;10.128;2022-09-09T07:51:59;16.30;99.90
6377;DHT22;3221;48.858;10.128;2022-09-09T07:54:27;16.30;99.90
6377;DHT22;3221;48.858;10.128;2022-09-09T07:56:54;16.50;99.90
6377;DHT22;3221;48.858;10.128;2022-09-09T07:59:24;16.50;99.90
6377;DHT22;3221;48.858;10.128;2022-09-09T08:01:52;16.60;99.90
6377;DHT22;3221;48.858;10.128;2022-09-09T08:04:26;16.50;99.90
6377;DHT22;3221;48.858;10.128;2022-09-09T08:06:57;16.50;99.90
6377;DHT22;3221;48.858;10.128;2022-09-09T08:09:26;16.60;99.90
6377;DHT22;3221;48.858;10.128;2022-09-09T08:12:02;16.70;99.90
6377;DHT22;3221;48.858;10.128;2022-09-09T08:14:30;16.80;99.90
6377;DHT22;3221;48.858;10.128;2022-09-09T08:16:57;16.80;99.90
6377;DHT22;3221;48.858;10.128;2022-09-09T08:19:26;16.90;99.90
6377;DHT22;3221;48.858;10.128;2022-09-09T08:21:58;17.00;99.90
6377;DHT22;3221;48.858;10.128;2022-09-09T08:24:25;17.00;99.90
6377;DHT22;3221;48.858;10.128;2022-09-09T08:26:51;17.00;99.90
6377;DHT22;3221;48.858;10.128;2022-09-09T08:29:22;16.90;99.90
6377;DHT22;3221;48.858;10.128;2022-09-09T08:31:54;16.90;99.90
6377;DHT22;3221;48.858;10.128;2022-09-09T08:34:22;16.90;99.90
6377;DHT22;3221;48.858;10.128;2022-09-09T08:36:51;16.90;99.90
6377;DHT22;3221;48.858;10.128;2022-09-09T08:39:22;17.00;99.90
6377;DHT22;3221;48.858;10.128;2022-09-09T08:42:04;17.00;99.90
6377;DHT22;3221;48.858;10.128;2022-09-09T08:48:08;17.00;99.90
6377;DHT22;3221;48.858;10.128;2022-09-09T08:50:39;17.00;99.90
6377;DHT22;3221;48.858;10.128;2022-09-09T08:53:19;17.20;99.90
6377;DHT22;3221;48.858;10.128;2022-09-09T08:58:27;17.30;99.90
6377;DHT22;3221;48.858;10.128;2022-09-09T09:11:54;17.40;99.90
6377;DHT22;3221;48.858;10.128;2022-09-09T09:14:25;17.40;99.90
6377;DHT22;3221;48.858;10.128;2022-09-09T09:16:59;17.40;99.90
6377;DHT22;3221;48.858;10.128;2022-09-09T09:19:29;17.20;99.90
6377;DHT22;3221;48.858;10.128;2022-09-09T09:24:45;17.40;99.90
6377;DHT22;3221;48.858;10.128;2022-09-09T09:27:21;17.40;99.90
6377;DHT22;3221;48.858;10.128;2022-09-09T09:29:54;17.50;99.90
6377;DHT22;3221;48.858;10.128;2022-09-09T09:35:28;17.50;99.90
6377;DHT22;3221;48.858;10.128;2022-09-09T09:37:55;17.50;99.90
6377;DHT22;3221;48.858;10.128;2022-09-09T09:40:54;17.60;99.90
6377;DHT22;3221;48.858;10.128;2022-09-09T09:43:29;17.70;99.90
6377;DHT22;3221;48.858;10.128;2022-09-09T09:45:59;17.70;99.90
6377;DHT22;3221;48.858;10.128;2022-09-09T09:48:44;17.70;99.90
6377;DHT22;3221;48.858;10.128;2022-09-09T09:51:15;17.90;99.90
6377;DHT22;3221;48.858;10.128;2022-09-09T09:53:44;18.10;99.90
6377;DHT22;3221;48.858;10.128;2022-09-09T09:56:14;18.10;99.90
6377;DHT22;3221;48.858;10.128;2022-09-09T10:01:25;18.20;99.90
6377;DHT22;3221;48.858;10.128;2022-09-09T10:03:58;18.20;99.90
6377;DHT22;3221;48.858;10.128;2022-09-09T10:06:44;18.30;99.90
6377;DHT22;3221;48.858;10.128;2022-09-09T10:09:25;18.20;99.90
6377;DHT22;3221;48.858;10.128;2022-09-09T10:12:09;18.30;99.90
6377;DHT22;3221;48.858;10.128;2022-09-09T10:17:17;18.30;99.90
6377;DHT22;3221;48.858;10.128;2022-09-09T10:22:39;18.20;99.90
6377;DHT22;3221;48.858;10.128;2022-09-09T10:25:31;18.20;99.90
6377;DHT22;3221;48.858;10.128;2022-09-09T10:33:17;18.10;99.90
6377;DHT22;3221;48.858;10.128;2022-09-09T10:36:13;18.20;99.90
6377;DHT22;3221;48.858;10.128;2022-09-09T10:39:06;18.10;99.90
6377;DHT22;3221;48.858;10.128;2022-09-09T10:50:47;18.20;99.90
6377;DHT22;3221;48.858;10.128;2022-09-09T10:56:15;18.10;99.90
6377;DHT22;3221;48.858;10.128;2022-09-09T11:01:20;18.40;99.90
6377;DHT22;3221;48.858;10.128;2022-09-09T11:06:54;18.30;99.90
6377;DHT22;3221;48.858;10.128;2022-09-09T11:09:28;18.40;99.90
6377;DHT22;3221;48.858;10.128;2022-09-09T11:12:00;18.80;99.90
6377;DHT22;3221;48.858;10.128;2022-09-09T11:14:52;18.90;99.90
6377;DHT22;3221;48.858;10.128;2022-09-09T11:17:36;19.00;99.90
6377;DHT22;3221;48.858;10.128;2022-09-09T11:20:12;18.90;99.90
6377;DHT22;3221;48.858;10.128;2022-09-09T11:23:01;18.90;99.90
6377;DHT22;3221;48.858;10.128;2022-09-09T11:25:34;18.90;99.90
6377;DHT22;3221;48.858;10.128;2022-09-09T11:28:28;18.80;99.90
6377;DHT22;3221;48.858;10.128;2022-09-09T11:36:43;18.70;99.90
6377;DHT22;3221;48.858;10.128;2022-09-09T11:39:28;18.60;99.90
6377;DHT22;3221;48.858;10.128;2022-09-09T11:42:21;18.60;99.90
6377;DHT22;3221;48.858;10.128;2022-09-09T11:44:49;18.90;99.90
6377;DHT22;3221;48.858;10.128;2022-09-09T11:47:36;19.00;99.50
6377;DHT22;3221;48.858;10.128;2022-09-09T11:52:44;19.20;99.10
6377;DHT22;3221;48.858;10.128;2022-09-09T11:55:27;19.20;98.90
6377;DHT22;3221;48.858;10.128;2022-09-09T11:58:03;19.20;99.10
6377;DHT22;3221;48.858;10.128;2022-09-09T12:00:33;19.30;98.70
6377;DHT22;3221;48.858;10.128;2022-09-09T12:03:00;19.30;98.60
6377;DHT22;3221;48.858;10.128;2022-09-09T12:05:42;19.30;98.60
6377;DHT22;3221;48.858;10.128;2022-09-09T12:08:15;19.40;97.80
6377;DHT22;3221;48.858;10.128;2022-09-09T12:10:53;19.50;96.80
6377;DHT22;3221;48.858;10.128;2022-09-09T12:13:23;19.50;96.90
6377;DHT22;3221;48.858;10.128;2022-09-09T12:15:55;19.60;96.60
6377;DHT22;3221;48.858;10.128;2022-09-09T12:21:05;19.70;96.80
6377;DHT22;3221;48.858;10.128;2022-09-09T12:23:52;19.60;96.90
6377;DHT22;3221;48.858;10.128;2022-09-09T12:26:32;19.70;96.80
6377;DHT22;3221;48.858;10.128;2022-09-09T12:29:10;19.70;96.60
6377;DHT22;3221;48.858;10.128;2022-09-09T12:34:47;19.70;96.60
6377;DHT22;3221;48.858;10.128;2022-09-09T12:42:33;19.70;96.40
6377;DHT22;3221;48.858;10.128;2022-09-09T12:45:16;19.90;95.60
6377;DHT22;3221;48.858;10.128;2022-09-09T12:48:08;19.80;95.50
6377;DHT22;3221;48.858;10.128;2022-09-09T12:50:43;19.70;95.70
6377;DHT22;3221;48.858;10.128;2022-09-09T12:53:29;19.70;95.40
6377;DHT22;3221;48.858;10.128;2022-09-09T12:56:03;19.60;95.30
6377;DHT22;3221;48.858;10.128;2022-09-09T12:58:31;19.40;95.80
6377;DHT22;3221;48.858;10.128;2022-09-09T13:01:03;19.30;96.40
6377;DHT22;3221;48.858;10.128;2022-09-09T13:03:42;19.20;96.90
6377;DHT22;3221;48.858;10.128;2022-09-09T13:06:18;19.20;97.10
6377;DHT22;3221;48.858;10.128;2022-09-09T13:08:46;19.10;97.40
6377;DHT22;3221;48.858;10.128;2022-09-09T13:11:16;19.20;97.50
6377;DHT22;3221;48.858;10.128;2022-09-09T13:13:51;19.10;97.40
6377;DHT22;3221;48.858;10.128;2022-09-09T13:16:22;19.20;97.60
6377;DHT22;3221;48.858;10.128;2022-09-09T13:18:50;19.20;97.40
6377;DHT22;3221;48.858;10.128;2022-09-09T13:21:18;19.10;97.30
6377;DHT22;3221;48.858;10.128;2022-09-09T13:23:50;19.10;97.20
6377;DHT22;3221;48.858;10.128;2022-09-09T13:26:25;19.10;97.20
6377;DHT22;3221;48.858;10.128;2022-09-09T13:28:54;19.10;97.20
6377;DHT22;3221;48.858;10.128;2022-09-09T13:31:29;19.10;97.30
6377;DHT22;3221;48.858;10.128;2022-09-09T13:33:56;19.10;97.30
6377;DHT22;3221;48.858;10.128;2022-09-09T13:36:32;19.20;97.00
6377;DHT22;3221;48.858;10.128;2022-09-09T13:39:02;19.30;97.40
6377;DHT22;3221;48.858;10.128;2022-09-09T13:41:41;19.40;97.60
6377;DHT22;3221;48.858;10.128;2022-09-09T13:44:22;19.60;97.30
6377;DHT22;3221;48.858;10.128;2022-09-09T13:47:20;19.60;97.20
6377;DHT22;3221;48.858;10.128;2022-09-09T13:49:48;19.60;97.30
6377;DHT22;3221;48.858;10.128;2022-09-09T13:52:17;19.80;97.20
6377;DHT22;3221;48.858;10.128;2022-09-09T13:54:49;19.90;97.00
6377;DHT22;3221;48.858;10.128;2022-09-09T13:57:22;20.00;96.90
6377;DHT22;3221;48.858;10.128;2022-09-09T13:59:50;20.00;96.70
6377;DHT22;3221;48.858;10.128;2022-09-09T14:02:30;20.10;96.60
6377;DHT22;3221;48.858;10.128;2022-09-09T14:04:57;20.00;97.10
6377;DHT22;3221;48.858;10.128;2022-09-09T14:07:24;20.00;96.70
6377;DHT22;3221;48.858;10.128;2022-09-09T14:09:51;20.20;96.60
6377;DHT22;3221;48.858;10.128;2022-09-09T14:12:19;20.30;96.20
6377;DHT22;3221;48.858;10.128;2022-09-09T14:14:46;20.30;96.20
6377;DHT22;3221;48.858;10.128;2022-09-09T14:17:13;20.30;95.90
6377;DHT22;3221;48.858;10.128;2022-09-09T14:19:41;20.30;95.80
6377;DHT22;3221;48.858;10.128;2022-09-09T14:22:09;20.40;95.80
6377;DHT22;3221;48.858;10.128;2022-09-09T14:24:36;20.60;95.50
6377;DHT22;3221;48.858;10.128;2022-09-09T14:27:03;20.70;95.70
6377;DHT22;3221;48.858;10.128;2022-09-09T14:29:30;20.60;95.70
6377;DHT22;3221;48.858;10.128;2022-09-09T14:31:56;20.60;95.50
6377;DHT22;3221;48.858;10.128;2022-09-09T14:34:23;20.60;95.40
6377;DHT22;3221;48.858;10.128;2022-09-09T14:36:50;20.40;95.50
6377;DHT22;3221;48.858;10.128;2022-09-09T14:39:17;20.40;95.10
6377;DHT22;3221;48.858;10.128;2022-09-09T14:41:44;20.40;95.60
6377;DHT22;3221;48.858;10.128;2022-09-09T14:44:12;20.30;95.40
6377;DHT22;3221;48.858;10.128;2022-09-09T14:46:39;20.30;95.40
6377;DHT22;3221;48.858;10.128;2022-09-09T14:49:05;20.30;95.40
6377;DHT22;3221;48.858;10.128;2022-09-09T14:51:32;20.30;95.40
6377;DHT22;3221;48.858;10.128;2022-09-09T14:53:59;20.30;95.20
6377;DHT22;3221;48.858;10.128;2022-09-09T14:56:29;20.40;95.30
6377;DHT22;3221;48.858;10.128;2022-09-09T14:58:57;20.40;95.30
6377;DHT22;3221;48.858;10.128;2022-09-09T15:01:25;20.30;95.40
6377;DHT22;3221;48.858;10.128;2022-09-09T15:03:57;20.20;95.20
6377;DHT22;3221;48.858;10.128;2022-09-09T15:06:27;20.20;95.20
6377;DHT22;3221;48.858;10.128;2022-09-09T15:08:54;20.20;94.90
6377;DHT22;3221;48.858;10.128;2022-09-09T15:11:26;20.20;95.20
6377;DHT22;3221;48.858;10.128;2022-09-09T15:13:54;20.10;95.20
6377;DHT22;3221;48.858;10.128;2022-09-09T15:16:23;20.20;95.30
6377;DHT22;3221;48.858;10.128;2022-09-09T15:18:53;20.10;95.20
6377;DHT22;3221;48.858;10.128;2022-09-09T15:21:23;20.10;94.70
6377;DHT22;3221;48.858;10.128;2022-09-09T15:23:50;20.10;95.30
6377;DHT22;3221;48.858;10.128;2022-09-09T15:26:18;20.00;95.10
6377;DHT22;3221;48.858;10.128;2022-09-09T15:28:46;20.00;95.40
6377;DHT22;3221;48.858;10.128;2022-09-09T15:31:16;20.00;95.20
6377;DHT22;3221;48.858;10.128;2022-09-09T15:33:53;20.00;94.80
6377;DHT22;3221;48.858;10.128;2022-09-09T15:36:29;20.00;95.20
6377;DHT22;3221;48.858;10.128;2022-09-09T15:38:56;20.00;95.20
6377;DHT22;3221;48.858;10.128;2022-09-09T15:41:24;20.00;94.90
6377;DHT22;3221;48.858;10.128;2022-09-09T15:43:52;20.00;95.30
6377;DHT22;3221;48.858;10.128;2022-09-09T15:46:29;20.00;95.10
6377;DHT22;3221;48.858;10.128;2022-09-09T15:49:14;19.80;94.80
6377;DHT22;3221;48.858;10.128;2022-09-09T15:51:46;19.80;95.00
6377;DHT22;3221;48.858;10.128;2022-09-09T15:54:18;19.70;95.00
6377;DHT22;3221;48.858;10.128;2022-09-09T15:56:51;19.70;94.80
6377;DHT22;3221;48.858;10.128;2022-09-09T15:59:18;19.60;94.90
6377;DHT22;3221;48.858;10.128;2022-09-09T16:01:45;19.50;95.00
6377;DHT22;3221;48.858;10.128;2022-09-09T16:04:12;19.40;95.20
6377;DHT22;3221;48.858;10.128;2022-09-09T16:06:39;19.50;94.70
6377;DHT22;3221;48.858;10.128;2022-09-09T16:09:07;19.50;94.60
6377;DHT22;3221;48.858;10.128;2022-09-09T16:11:36;19.50;93.90
6377;DHT22;3221;48.858;10.128;2022-09-09T16:14:04;19.40;94.60
6377;DHT22;3221;48.858;10.128;2022-09-09T16:16:33;19.40;95.00
6377;DHT22;3221;48.858;10.128;2022-09-09T16:19:10;19.40;94.70
6377;DHT22;3221;48.858;10.128;2022-09-09T16:21:43;19.40;94.10
6377;DHT22;3221;48.858;10.128;2022-09-09T16:24:13;19.30;94.20
6377;DHT22;3221;48.858;10.128;2022-09-09T16:26:43;19.20;94.30
6377;DHT22;3221;48.858;10.128;2022-09-09T16:29:14;19.20;94.30
6377;DHT22;3221;48.858;10.128;2022-09-09T16:31:42;19.20;94.00
6377;DHT22;3221;48.858;10.128;2022-09-09T16:34:09;19.20;94.30
6377;DHT22;3221;48.858;10.128;2022-09-09T16:36:37;19.10;94.40
6377;DHT22;3221;48.858;10.128;2022-09-09T16:39:08;19.00;94.30
6377;DHT22;3221;48.858;10.128;2022-09-09T16:41:39;18.90;94.60
6377;DHT22;3221;48.858;10.128;2022-09-09T16:44:08;19.00;94.70
6377;DHT22;3221;48.858;10.128;2022-09-09T16:46:38;18.90;94.30
6377;DHT22;3221;48.858;10.128;2022-09-09T16:49:08;19.00;94.50
6377;DHT22;3221;48.858;10.128;2022-09-09T16:51:37;18.90;94.50
6377;DHT22;3221;48.858;10.128;2022-09-09T16:54:06;18.80;94.40
6377;DHT22;3221;48.858;10.128;2022-09-09T16:56:38;18.80;94.80
6377;DHT22;3221;48.858;10.128;2022-09-09T16:59:11;18.70;94.60
6377;DHT22;3221;48.858;10.128;2022-09-09T17:01:40;18.70;94.80
6377;DHT22;3221;48.858;10.128;2022-09-09T17:04:10;18.70;94.80
6377;DHT22;3221;48.858;10.128;2022-09-09T17:06:37;18.60;94.50
6377;DHT22;3221;48.858;10.128;2022-09-09T17:09:07;18.60;94.70
6377;DHT22;3221;48.858;10.128;2022-09-09T17:11:35;18.50;94.60
6377;DHT22;3221;48.858;10.128;2022-09-09T17:14:03;18.60;94.80
6377;DHT22;3221;48.858;10.128;2022-09-09T17:16:32;18.50;94.50
6377;DHT22;3221;48.858;10.128;2022-09-09T17:19:03;18.40;94.60
6377;DHT22;3221;48.858;10.128;2022-09-09T17:21:31;18.30;94.90
6377;DHT22;3221;48.858;10.128;2022-09-09T17:23:59;18.30;95.10
6377;DHT22;3221;48.858;10.128;2022-09-09T17:26:31;18.20;95.30
6377;DHT22;3221;48.858;10.128;2022-09-09T17:29:00;18.20;95.30
6377;DHT22;3221;48.858;10.128;2022-09-09T17:31:28;18.10;95.50
6377;DHT22;3221;48.858;10.128;2022-09-09T17:33:56;18.00;95.60
6377;DHT22;3221;48.858;10.128;2022-09-09T17:36:34;17.90;95.80
6377;DHT22;3221;48.858;10.128;2022-09-09T17:39:02;17.90;96.00
6377;DHT22;3221;48.858;10.128;2022-09-09T17:41:38;17.80;96.20
6377;DHT22;3221;48.858;10.128;2022-09-09T17:44:07;17.70;96.30
6377;DHT22;3221;48.858;10.128;2022-09-09T17:46:39;17.70;96.50
6377;DHT22;3221;48.858;10.128;2022-09-09T17:49:09;17.60;96.60
6377;DHT22;3221;48.858;10.128;2022-09-09T17:51:37;17.60;96.70
6377;DHT22;3221;48.858;10.128;2022-09-09T17:54:10;17.60;96.80
6377;DHT22;3221;48.858;10.128;2022-09-09T17:56:40;17.50;96.90
6377;DHT22;3221;48.858;10.128;2022-09-09T17:59:09;17.60;97.00
6377;DHT22;3221;48.858;10.128;2022-09-09T18:01:38;17.70;96.90
6377;DHT22;3221;48.858;10.128;2022-09-09T18:04:08;17.80;96.60
6377;DHT22;3221;48.858;10.128;2022-09-09T18:06:38;17.80;96.60
6377;DHT22;3221;48.858;10.128;2022-09-09T18:09:11;17.80;96.60
6377;DHT22;3221;48.858;10.128;2022-09-09T18:11:44;17.80;96.60